createdAt,value
2019-05-09T00:00:47.319Z,10.41
2019-05-09T00:01:47.290Z,10.37
2019-05-09T00:02:47.275Z,10.37
2019-05-09T00:03:47.258Z,10.34
2019-05-09T00:04:47.254Z,10.31
2019-05-09T00:05:47.250Z,10.34
2019-05-09T00:06:47.242Z,10.34
2019-05-09T00:07:47.240Z,10.25
2019-05-09T00:08:47.221Z,10.30
2019-05-09T00:09:47.195Z,10.23
2019-05-09T00:10:47.199Z,10.26
2019-05-09T00:11:47.172Z,10.19
2019-05-09T00:12:47.163Z,10.13
2019-05-09T00:13:47.159Z,10.25
2019-05-09T00:14:47.146Z,10.23
2019-05-09T00:15:47.160Z,10.26
2019-05-09T00:16:47.128Z,10.23
2019-05-09T00:17:47.123Z,10.20
2019-05-09T00:18:47.103Z,10.17
2019-05-09T00:19:47.092Z,10.16
2019-05-09T00:20:47.077Z,10.12
2019-05-09T00:21:47.067Z,10.19
2019-05-09T00:22:47.058Z,10.28
2019-05-09T00:23:47.064Z,10.17
2019-05-09T00:24:47.045Z,10.20
2019-05-09T00:25:47.022Z,10.19
2019-05-09T00:26:47.055Z,10.10
2019-05-09T00:27:47.000Z,10.16
2019-05-09T00:28:47.013Z,10.17
2019-05-09T00:29:47.036Z,10.16
2019-05-09T00:30:46.967Z,10.07
2019-05-09T00:31:46.969Z,10.25
2019-05-09T00:32:46.981Z,10.16
2019-05-09T00:33:48.163Z,10.22
2019-05-09T00:34:46.926Z,10.09
2019-05-09T00:35:46.928Z,10.09
2019-05-09T00:36:46.917Z,10.07
2019-05-09T00:37:46.894Z,10.16
2019-05-09T00:38:46.875Z,10.12
2019-05-09T00:39:46.875Z,10.17
2019-05-09T00:40:57.762Z,10.12
2019-05-09T00:41:47.878Z,10.17
2019-05-09T00:42:46.833Z,10.16
2019-05-09T00:43:46.833Z,10.13
2019-05-09T00:44:46.808Z,10.15
2019-05-09T00:45:46.810Z,10.04
2019-05-09T00:46:46.827Z,10.12
2019-05-09T00:47:46.777Z,10.04
2019-05-09T00:48:46.768Z,10.16
2019-05-09T00:49:46.754Z,10.05
2019-05-09T00:50:46.745Z,10.09
2019-05-09T00:51:46.771Z,10.16
2019-05-09T00:52:46.723Z,10.10
2019-05-09T00:53:46.714Z,10.04
2019-05-09T00:54:46.729Z,10.10
2019-05-09T00:55:46.690Z,10.07
2019-05-09T00:56:46.695Z,10.04
2019-05-09T00:57:46.672Z,10.07
2019-05-09T00:58:46.671Z,9.97
2019-05-09T00:59:46.670Z,9.95
2019-05-09T01:00:46.662Z,9.95
2019-05-09T01:01:46.622Z,10.02
2019-05-09T01:02:46.629Z,10.02
2019-05-09T01:03:46.602Z,10.01
2019-05-09T01:04:46.593Z,10.01
2019-05-09T01:05:47.545Z,10.01
2019-05-09T01:06:46.567Z,9.98
2019-05-09T01:07:46.573Z,10.04
2019-05-09T01:08:46.544Z,10.01
2019-05-09T01:09:46.541Z,10.05
2019-05-09T01:10:46.524Z,10.02
2019-05-09T01:11:46.547Z,9.95
2019-05-09T01:12:46.505Z,9.99
2019-05-09T01:13:46.531Z,9.95
2019-05-09T01:14:46.486Z,9.94
2019-05-09T01:15:46.467Z,9.98
2019-05-09T01:16:46.477Z,9.97
2019-05-09T01:17:46.446Z,9.86
2019-05-09T01:18:46.463Z,9.91
2019-05-09T01:19:46.451Z,9.92
2019-05-09T01:20:46.459Z,9.97
2019-05-09T01:21:46.418Z,9.91
2019-05-09T01:22:46.404Z,9.92
2019-05-09T01:23:46.402Z,10.01
2019-05-09T01:24:46.400Z,9.87
2019-05-09T01:25:46.359Z,9.89
2019-05-09T01:26:46.352Z,9.87
2019-05-09T01:27:46.336Z,9.94
2019-05-09T01:28:46.344Z,9.98
2019-05-09T01:29:48.176Z,9.91
2019-05-09T01:30:46.315Z,9.94
2019-05-09T01:31:46.294Z,9.98
2019-05-09T01:32:46.326Z,9.91
2019-05-09T01:33:46.276Z,9.97
2019-05-09T01:34:46.285Z,9.98
2019-05-09T01:35:46.259Z,9.98
2019-05-09T01:36:46.250Z,9.95
2019-05-09T01:37:46.252Z,9.82
2019-05-09T01:38:46.230Z,9.89
2019-05-09T01:39:46.211Z,9.86
2019-05-09T01:40:46.239Z,9.91
2019-05-09T01:41:46.198Z,9.79
2019-05-09T01:42:46.171Z,9.89
2019-05-09T01:43:46.167Z,9.89
2019-05-09T01:44:46.150Z,9.94
2019-05-09T01:45:47.197Z,9.95
2019-05-09T01:46:46.134Z,9.86
2019-05-09T01:47:46.139Z,9.86
2019-05-09T01:48:46.111Z,9.82
2019-05-09T01:49:46.124Z,9.84
2019-05-09T01:50:46.086Z,9.87
2019-05-09T01:51:46.072Z,9.76
2019-05-09T01:52:46.081Z,9.89
2019-05-09T01:53:46.075Z,9.79
2019-05-09T01:54:46.054Z,9.80
2019-05-09T01:55:46.027Z,9.79
2019-05-09T01:56:46.028Z,9.79
2019-05-09T01:57:47.958Z,9.69
2019-05-09T01:58:46.032Z,9.82
2019-05-09T01:59:46.002Z,9.76
2019-05-09T02:00:45.971Z,9.76
2019-05-09T02:01:45.964Z,9.68
2019-05-09T02:02:45.950Z,9.68
2019-05-09T02:03:45.947Z,9.66
2019-05-09T02:04:45.945Z,9.61
2019-05-09T02:05:45.930Z,9.68
2019-05-09T02:06:45.921Z,9.56
2019-05-09T02:07:45.938Z,9.56
2019-05-09T02:08:45.892Z,9.58
2019-05-09T02:09:45.910Z,9.59
2019-05-09T02:10:45.884Z,9.56
2019-05-09T02:11:45.910Z,9.61
2019-05-09T02:12:45.862Z,9.55
2019-05-09T02:13:45.842Z,9.51
2019-05-09T02:14:45.818Z,9.62
2019-05-09T02:15:54.444Z,9.54
2019-05-09T02:16:53.795Z,9.56
2019-05-09T02:18:01.374Z,9.62
2019-05-09T02:19:59.376Z,9.58
2019-05-09T02:21:06.935Z,9.55
2019-05-09T02:22:07.940Z,9.51
2019-05-09T02:23:09.462Z,9.50
2019-05-09T02:24:06.914Z,9.46
2019-05-09T02:25:06.871Z,9.48
2019-05-09T02:25:59.299Z,9.36
2019-05-09T02:26:59.313Z,9.32
2019-05-09T02:27:59.320Z,9.43
2019-05-09T02:28:59.281Z,9.44
2019-05-09T02:29:59.255Z,9.39
2019-05-09T02:30:59.261Z,9.37
2019-05-09T02:31:59.245Z,9.34
2019-05-09T02:32:59.290Z,9.36
2019-05-09T02:33:59.208Z,9.39
2019-05-09T02:34:59.206Z,9.29
2019-05-09T02:36:01.823Z,9.40
2019-05-09T02:36:59.178Z,9.36
2019-05-09T02:37:59.179Z,9.37
2019-05-09T02:38:59.226Z,9.28
2019-05-09T02:39:59.419Z,9.34
2019-05-09T02:40:59.654Z,9.43
2019-05-09T02:42:08.411Z,9.41
2019-05-09T02:43:00.114Z,9.41
2019-05-09T02:43:59.123Z,9.32
2019-05-09T02:44:59.598Z,9.37
2019-05-09T02:45:59.657Z,9.19
2019-05-09T02:46:59.152Z,9.29
2019-05-09T02:47:59.157Z,9.29
2019-05-09T02:48:59.626Z,9.26
2019-05-09T02:49:59.216Z,9.31
2019-05-09T02:51:00.331Z,9.25
2019-05-09T02:51:59.542Z,9.21
2019-05-09T02:52:59.227Z,9.19
2019-05-09T02:53:59.000Z,9.11
2019-05-09T02:54:59.001Z,9.14
2019-05-09T02:55:58.983Z,9.16
2019-05-09T02:56:59.047Z,9.08
2019-05-09T02:57:59.314Z,9.16
2019-05-09T02:58:59.129Z,9.18
2019-05-09T02:59:59.365Z,9.16
2019-05-09T03:00:59.808Z,9.13
2019-05-09T03:01:58.908Z,9.11
2019-05-09T03:02:59.747Z,9.02
2019-05-09T03:03:59.091Z,9.08
2019-05-09T03:04:58.874Z,9.08
2019-05-09T03:05:59.863Z,9.02
2019-05-09T03:06:59.933Z,9.11
2019-05-09T03:07:58.853Z,9.11
2019-05-09T03:08:59.542Z,9.03
2019-05-09T03:09:58.808Z,9.03
2019-05-09T03:10:59.230Z,9.02
2019-05-09T03:11:59.323Z,9.06
2019-05-09T03:12:59.783Z,8.95
2019-05-09T03:13:58.907Z,8.97
2019-05-09T03:14:58.895Z,8.94
2019-05-09T03:15:58.762Z,8.99
2019-05-09T03:16:59.055Z,8.94
2019-05-09T03:17:59.958Z,9.02
2019-05-09T03:18:58.740Z,8.97
2019-05-09T03:19:58.767Z,8.94
2019-05-09T03:20:58.705Z,8.97
2019-05-09T03:21:58.694Z,8.87
2019-05-09T03:22:58.677Z,8.92
2019-05-09T03:23:59.291Z,8.85
2019-05-09T03:24:58.921Z,8.87
2019-05-09T03:25:59.114Z,8.92
2019-05-09T03:26:59.507Z,8.94
2019-05-09T03:27:58.860Z,8.92
2019-05-09T03:28:59.258Z,8.89
2019-05-09T03:29:59.074Z,8.87
2019-05-09T03:30:59.398Z,8.87
2019-05-09T03:32:00.044Z,8.82
2019-05-09T03:32:59.667Z,8.88
2019-05-09T03:33:59.683Z,8.88
2019-05-09T03:34:58.546Z,8.88
2019-05-09T03:35:58.513Z,8.91
2019-05-09T03:36:58.502Z,8.87
2019-05-09T03:37:58.497Z,8.88
2019-05-09T03:38:58.477Z,8.81
2019-05-09T03:39:58.477Z,8.91
2019-05-09T03:40:58.473Z,8.94
2019-05-09T03:41:58.449Z,8.87
2019-05-09T03:42:58.435Z,8.85
2019-05-09T03:43:58.708Z,8.91
2019-05-09T03:44:58.440Z,8.87
2019-05-09T03:45:58.618Z,8.81
2019-05-09T03:46:58.404Z,8.81
2019-05-09T03:47:58.382Z,8.76
2019-05-09T03:48:58.391Z,8.81
2019-05-09T03:49:58.714Z,8.74
2019-05-09T03:50:58.375Z,8.82
2019-05-09T03:51:58.585Z,8.82
2019-05-09T03:52:58.327Z,8.74
2019-05-09T03:53:58.333Z,8.81
2019-05-09T03:54:58.322Z,8.81
2019-05-09T03:55:58.292Z,8.81
2019-05-09T03:56:58.325Z,8.84
2019-05-09T03:57:58.289Z,8.84
2019-05-09T03:58:58.265Z,8.81
2019-05-09T03:59:58.245Z,8.84
2019-05-09T04:00:58.246Z,8.79
2019-05-09T04:01:58.950Z,8.82
2019-05-09T04:02:58.241Z,8.74
2019-05-09T04:03:58.487Z,8.74
2019-05-09T04:04:58.219Z,8.81
2019-05-09T04:06:02.685Z,8.79
2019-05-09T04:06:58.247Z,8.79
2019-05-09T04:07:58.388Z,8.78
2019-05-09T04:08:58.617Z,8.84
2019-05-09T04:09:58.545Z,8.74
2019-05-09T04:10:58.816Z,8.76
2019-05-09T04:12:00.199Z,8.76
2019-05-09T04:12:59.600Z,8.79
2019-05-09T04:13:58.238Z,8.76
2019-05-09T04:14:58.474Z,8.76
2019-05-09T04:15:58.336Z,8.79
2019-05-09T04:16:58.065Z,8.84
2019-05-09T04:17:58.067Z,8.78
2019-05-09T04:18:58.277Z,8.79
2019-05-09T04:19:58.040Z,8.84
2019-05-09T04:20:58.028Z,8.79
2019-05-09T04:21:58.001Z,8.82
2019-05-09T04:22:59.524Z,8.78
2019-05-09T04:23:58.574Z,8.81
2019-05-09T04:24:57.968Z,8.81
2019-05-09T04:25:58.368Z,8.82
2019-05-09T04:26:57.954Z,8.82
2019-05-09T04:27:58.440Z,8.82
2019-05-09T04:28:57.951Z,8.73
2019-05-09T04:29:57.907Z,8.78
2019-05-09T04:30:58.232Z,8.78
2019-05-09T04:31:57.888Z,8.81
2019-05-09T04:32:58.228Z,8.73
2019-05-09T04:33:57.876Z,8.82
2019-05-09T04:34:57.911Z,8.78
2019-05-09T04:35:58.038Z,8.74
2019-05-09T04:36:57.908Z,8.81
2019-05-09T04:37:58.424Z,8.79
2019-05-09T04:38:57.863Z,8.74
2019-05-09T04:40:01.586Z,8.74
2019-05-09T04:40:58.782Z,8.76
2019-05-09T04:42:03.479Z,8.76
2019-05-09T04:43:11.360Z,8.78
2019-05-09T04:43:58.750Z,8.73
2019-05-09T04:45:03.055Z,8.82
2019-05-09T04:45:58.751Z,8.76
2019-05-09T04:47:00.090Z,8.79
2019-05-09T04:47:58.700Z,8.82
2019-05-09T04:48:59.366Z,8.79
2019-05-09T04:49:58.373Z,8.92
2019-05-09T04:50:59.533Z,8.81
2019-05-09T04:51:58.432Z,8.92
2019-05-09T04:52:58.074Z,8.79
2019-05-09T04:53:58.385Z,8.94
2019-05-09T04:54:57.700Z,8.95
2019-05-09T04:55:58.122Z,8.85
2019-05-09T04:56:57.652Z,8.99
2019-05-09T04:58:00.071Z,8.89
2019-05-09T04:58:58.375Z,8.89
2019-05-09T04:59:57.636Z,8.94
2019-05-09T05:00:57.578Z,9.02
2019-05-09T05:01:58.208Z,8.99
2019-05-09T05:02:57.660Z,9.06
2019-05-09T05:03:57.549Z,9.11
2019-05-09T05:04:58.567Z,9.14
2019-05-09T05:05:58.558Z,9.19
2019-05-09T05:06:58.500Z,9.19
2019-05-09T05:07:57.497Z,9.18
2019-05-09T05:08:58.589Z,9.23
2019-05-09T05:09:57.715Z,9.21
2019-05-09T05:10:58.226Z,9.31
2019-05-09T05:11:58.143Z,9.25
2019-05-09T05:12:57.422Z,9.37
2019-05-09T05:13:58.593Z,9.44
2019-05-09T05:14:58.070Z,9.50
2019-05-09T05:15:57.930Z,9.44
2019-05-09T05:17:06.338Z,9.54
2019-05-09T05:17:58.386Z,9.40
2019-05-09T05:18:58.414Z,9.47
2019-05-09T05:19:58.011Z,9.56
2019-05-09T05:20:57.664Z,9.69
2019-05-09T05:21:58.349Z,9.80
2019-05-09T05:22:58.096Z,9.97
2019-05-09T05:23:57.718Z,9.95
2019-05-09T05:24:59.689Z,9.97
2019-05-09T05:25:58.021Z,9.95
2019-05-09T05:26:57.891Z,9.97
2019-05-09T05:27:58.088Z,9.94
2019-05-09T05:28:58.048Z,9.99
2019-05-09T05:29:58.283Z,10.10
2019-05-09T05:30:58.229Z,10.10
2019-05-09T05:31:58.071Z,10.15
2019-05-09T05:32:57.910Z,10.38
2019-05-09T05:33:57.861Z,10.42
2019-05-09T05:34:57.334Z,10.34
2019-05-09T05:35:57.462Z,10.33
2019-05-09T05:36:58.245Z,10.30
2019-05-09T05:37:58.077Z,10.33
2019-05-09T05:38:58.467Z,10.26
2019-05-09T05:39:58.278Z,10.19
2019-05-09T05:40:57.869Z,10.25
2019-05-09T05:41:57.647Z,10.38
2019-05-09T05:42:58.557Z,10.34
2019-05-09T05:43:58.062Z,10.35
2019-05-09T05:44:58.281Z,10.44
2019-05-09T05:45:58.449Z,10.49
2019-05-09T05:46:58.522Z,10.51
2019-05-09T05:47:57.601Z,10.63
2019-05-09T05:48:57.782Z,10.76
2019-05-09T05:49:57.776Z,10.86
2019-05-09T05:50:57.821Z,10.90
2019-05-09T05:51:57.642Z,10.93
2019-05-09T05:52:57.800Z,10.86
2019-05-09T05:53:57.480Z,10.79
2019-05-09T05:54:58.219Z,10.82
2019-05-09T05:55:58.024Z,10.87
2019-05-09T05:56:57.832Z,10.94
2019-05-09T05:57:57.939Z,10.94
2019-05-09T05:58:58.121Z,10.99
2019-05-09T05:59:58.542Z,10.96
2019-05-09T06:00:58.922Z,11.02
2019-05-09T06:01:58.338Z,11.07
2019-05-09T06:02:58.527Z,10.92
2019-05-09T06:03:58.671Z,10.71
2019-05-09T06:04:57.926Z,10.60
2019-05-09T06:05:58.493Z,10.72
2019-05-09T06:06:58.894Z,10.71
2019-05-09T06:07:57.710Z,10.63
2019-05-09T06:08:57.945Z,10.67
2019-05-09T06:09:57.613Z,10.72
2019-05-09T06:10:57.638Z,10.93
2019-05-09T06:11:57.750Z,11.12
2019-05-09T06:12:57.509Z,11.41
2019-05-09T06:14:04.291Z,11.68
2019-05-09T06:14:58.266Z,11.95
2019-05-09T06:15:58.660Z,12.22
2019-05-09T06:16:58.797Z,12.29
2019-05-09T06:17:57.917Z,12.53
2019-05-09T06:18:58.588Z,12.80
2019-05-09T06:19:58.983Z,12.87
2019-05-09T06:20:58.350Z,12.85
2019-05-09T06:21:57.390Z,12.82
2019-05-09T06:22:58.187Z,12.87
2019-05-09T06:23:58.462Z,13.04
2019-05-09T06:24:58.265Z,13.04
2019-05-09T06:25:58.697Z,12.90
2019-05-09T06:26:58.589Z,12.93
2019-05-09T06:27:58.423Z,13.11
2019-05-09T06:28:57.683Z,12.91
2019-05-09T06:29:58.137Z,12.80
2019-05-09T06:30:58.475Z,12.76
2019-05-09T06:31:58.426Z,12.80
2019-05-09T06:32:58.058Z,13.00
2019-05-09T06:33:57.794Z,13.30
2019-05-09T06:34:57.817Z,12.98
2019-05-09T06:35:58.677Z,13.00
2019-05-09T06:36:58.518Z,12.82
2019-05-09T06:37:58.800Z,12.93
2019-05-09T06:38:58.842Z,12.90
2019-05-09T06:39:58.250Z,12.93
2019-05-09T06:40:58.082Z,13.01
2019-05-09T06:41:57.565Z,13.04
2019-05-09T06:42:59.012Z,12.97
2019-05-09T06:44:12.647Z,13.11
2019-05-09T06:44:58.424Z,12.90
2019-05-09T06:45:57.548Z,12.78
2019-05-09T06:46:58.504Z,12.65
2019-05-09T06:48:00.017Z,12.87
2019-05-09T06:49:19.492Z,12.64
2019-05-09T06:49:57.523Z,12.72
2019-05-09T06:50:57.690Z,12.62
2019-05-09T06:51:58.062Z,12.55
2019-05-09T06:52:57.321Z,12.46
2019-05-09T06:53:58.390Z,12.49
2019-05-09T06:54:58.224Z,12.54
2019-05-09T06:55:57.982Z,12.47
2019-05-09T06:56:58.378Z,12.32
2019-05-09T06:57:58.368Z,12.47
2019-05-09T06:58:58.256Z,12.40
2019-05-09T06:59:57.848Z,12.37
2019-05-09T07:00:58.295Z,12.43
2019-05-09T07:01:57.582Z,12.47
2019-05-09T07:03:00.044Z,12.55
2019-05-09T07:03:57.496Z,12.55
2019-05-09T07:04:58.052Z,12.61
2019-05-09T07:05:57.558Z,12.73
2019-05-09T07:06:58.643Z,12.67
2019-05-09T07:07:57.538Z,12.85
2019-05-09T07:08:58.339Z,12.79
2019-05-09T07:09:58.400Z,12.67
2019-05-09T07:10:58.317Z,12.67
2019-05-09T07:11:58.480Z,12.67
2019-05-09T07:12:58.341Z,12.75
2019-05-09T07:13:57.909Z,12.75
2019-05-09T07:14:58.161Z,12.78
2019-05-09T07:15:58.363Z,12.78
2019-05-09T07:16:58.295Z,12.87
2019-05-09T07:17:57.519Z,12.87
2019-05-09T07:18:57.883Z,12.93
2019-05-09T07:19:58.728Z,12.98
2019-05-09T07:20:57.701Z,12.98
2019-05-09T07:21:57.953Z,13.01
2019-05-09T07:22:58.339Z,12.98
2019-05-09T07:23:58.068Z,12.94
2019-05-09T07:25:01.023Z,12.87
2019-05-09T07:25:58.238Z,12.97
2019-05-09T07:26:58.227Z,13.09
2019-05-09T07:27:58.506Z,13.00
2019-05-09T07:28:55.891Z,13.13
2019-05-09T07:29:55.879Z,13.12
2019-05-09T07:30:57.314Z,13.31
2019-05-09T07:31:57.292Z,13.20
2019-05-09T07:32:58.019Z,13.22
2019-05-09T07:33:58.551Z,13.25
2019-05-09T07:34:57.800Z,13.27
2019-05-09T07:35:57.942Z,13.35
2019-05-09T07:36:57.953Z,13.18
2019-05-09T07:37:57.901Z,13.44
2019-05-09T07:38:58.091Z,13.47
2019-05-09T07:39:57.699Z,13.53
2019-05-09T07:40:57.942Z,13.70
2019-05-09T07:41:57.721Z,13.67
2019-05-09T07:42:58.201Z,13.65
2019-05-09T07:43:58.096Z,13.70
2019-05-09T07:44:55.711Z,13.65
2019-05-09T07:45:57.955Z,13.54
2019-05-09T07:46:57.925Z,13.49
2019-05-09T07:47:58.140Z,13.47
2019-05-09T07:48:57.777Z,13.49
2019-05-09T07:49:55.651Z,13.39
2019-05-09T07:50:55.640Z,13.39
2019-05-09T07:51:55.675Z,13.41
2019-05-09T07:52:57.959Z,13.38
2019-05-09T07:53:55.606Z,13.41
2019-05-09T07:54:57.873Z,13.42
2019-05-09T07:55:55.583Z,13.49
2019-05-09T07:56:57.859Z,13.49
2019-05-09T07:57:56.356Z,13.59
2019-05-09T07:58:55.551Z,13.63
2019-05-09T07:59:55.540Z,13.67
2019-05-09T08:01:00.763Z,13.72
2019-05-09T08:01:58.194Z,13.74
2019-05-09T08:02:57.967Z,13.72
2019-05-09T08:03:58.150Z,13.90
2019-05-09T08:04:57.852Z,14.03
2019-05-09T08:05:57.857Z,14.20
2019-05-09T08:06:57.712Z,14.25
2019-05-09T08:07:55.455Z,14.33
2019-05-09T08:08:57.915Z,14.36
2019-05-09T08:09:57.778Z,14.48
2019-05-09T08:10:55.417Z,14.47
2019-05-09T08:11:55.403Z,14.37
2019-05-09T08:12:55.405Z,14.58
2019-05-09T08:13:57.506Z,14.51
2019-05-09T08:15:08.562Z,14.59
2019-05-09T08:15:58.371Z,14.48
2019-05-09T08:16:57.745Z,14.55
2019-05-09T08:17:55.337Z,14.59
2019-05-09T08:18:57.596Z,14.51
2019-05-09T08:19:55.336Z,14.45
2019-05-09T08:20:57.112Z,14.50
2019-05-09T08:21:57.338Z,14.72
2019-05-09T08:22:58.692Z,14.89
2019-05-09T08:23:57.873Z,14.81
2019-05-09T08:24:57.512Z,14.92
2019-05-09T08:25:57.720Z,14.69
2019-05-09T08:26:55.234Z,14.68
2019-05-09T08:27:55.226Z,14.55
2019-05-09T08:28:55.219Z,14.41
2019-05-09T08:29:55.200Z,14.20
2019-05-09T08:30:55.224Z,14.05
2019-05-09T08:31:55.179Z,14.17
2019-05-09T08:32:55.168Z,14.26
2019-05-09T08:33:55.156Z,14.35
2019-05-09T08:34:57.465Z,14.45
2019-05-09T08:35:55.133Z,14.60
2019-05-09T08:36:55.173Z,14.58
2019-05-09T08:37:55.115Z,14.65
2019-05-09T08:38:55.157Z,14.51
2019-05-09T08:39:57.582Z,14.33
2019-05-09T08:40:55.079Z,14.30
2019-05-09T08:41:55.114Z,14.25
2019-05-09T08:42:55.088Z,14.17
2019-05-09T08:43:57.414Z,14.30
2019-05-09T08:44:57.615Z,14.51
2019-05-09T08:45:55.024Z,14.77
2019-05-09T08:46:57.291Z,14.62
2019-05-09T08:47:55.018Z,14.45
2019-05-09T08:48:57.393Z,14.37
2019-05-09T08:49:54.993Z,14.26
2019-05-09T08:50:54.967Z,14.33
2019-05-09T08:52:08.975Z,14.68
2019-05-09T08:52:57.665Z,14.89
2019-05-09T08:53:54.932Z,14.89
2019-05-09T08:54:54.954Z,15.04
2019-05-09T08:55:54.911Z,15.19
2019-05-09T08:56:54.898Z,15.07
2019-05-09T08:57:54.888Z,14.99
2019-05-09T08:58:59.379Z,14.81
2019-05-09T08:59:55.864Z,14.91
2019-05-09T09:00:54.874Z,15.06
2019-05-09T09:02:12.258Z,15.40
2019-05-09T09:02:57.396Z,15.44
2019-05-09T09:03:54.836Z,15.42
2019-05-09T09:04:54.814Z,15.18
2019-05-09T09:05:54.797Z,15.18
2019-05-09T09:06:54.810Z,15.33
2019-05-09T09:07:54.778Z,15.47
2019-05-09T09:08:54.765Z,15.27
2019-05-09T09:09:54.766Z,15.24
2019-05-09T09:10:54.741Z,15.37
2019-05-09T09:11:54.730Z,15.57
2019-05-09T09:12:54.754Z,15.44
2019-05-09T09:13:54.710Z,15.33
2019-05-09T09:14:54.714Z,15.46
2019-05-09T09:16:12.132Z,15.35
2019-05-09T09:16:57.609Z,15.37
2019-05-09T09:17:54.662Z,15.35
2019-05-09T09:18:54.665Z,15.11
2019-05-09T09:19:54.641Z,14.97
2019-05-09T09:20:54.644Z,15.02
2019-05-09T09:21:59.627Z,14.92
2019-05-09T09:22:58.034Z,14.81
2019-05-09T09:23:54.595Z,14.72
2019-05-09T09:24:54.634Z,14.72
2019-05-09T09:25:54.578Z,14.68
2019-05-09T09:26:54.582Z,14.77
2019-05-09T09:27:54.553Z,14.72
2019-05-09T09:28:54.539Z,14.89
2019-05-09T09:29:54.532Z,14.99
2019-05-09T09:30:54.570Z,14.99
2019-05-09T09:31:54.512Z,14.85
2019-05-09T09:32:54.511Z,15.11
2019-05-09T09:33:54.488Z,15.51
2019-05-09T09:34:54.474Z,15.59
2019-05-09T09:36:03.121Z,15.46
2019-05-09T09:37:05.271Z,15.39
2019-05-09T09:38:03.189Z,15.47
2019-05-09T09:39:03.068Z,15.61
2019-05-09T09:39:54.476Z,15.65
2019-05-09T09:40:54.412Z,15.58
2019-05-09T09:41:54.447Z,15.49
2019-05-09T09:42:54.449Z,15.68
2019-05-09T09:43:54.492Z,15.92
2019-05-09T09:44:54.387Z,16.17
2019-05-09T09:46:07.200Z,16.41
2019-05-09T09:46:55.418Z,16.57
2019-05-09T09:47:54.468Z,16.78
2019-05-09T09:48:54.322Z,16.83
2019-05-09T09:49:55.143Z,16.94
2019-05-09T09:50:54.294Z,16.64
2019-05-09T09:51:54.284Z,16.57
2019-05-09T09:52:54.318Z,16.26
2019-05-09T09:53:54.263Z,15.75
2019-05-09T09:54:54.256Z,15.64
2019-05-09T09:55:54.251Z,15.84
2019-05-09T09:56:54.230Z,15.91
2019-05-09T09:57:54.227Z,15.83
2019-05-09T09:58:54.200Z,15.88
2019-05-09T09:59:54.195Z,15.77
2019-05-09T10:00:54.191Z,15.80
2019-05-09T10:01:54.176Z,15.65
2019-05-09T10:02:54.159Z,15.62
2019-05-09T10:03:54.180Z,15.52
2019-05-09T10:04:54.168Z,15.31
2019-05-09T10:05:54.138Z,15.39
2019-05-09T10:06:54.133Z,15.29
2019-05-09T10:07:54.101Z,15.21
2019-05-09T10:08:54.089Z,15.14
2019-05-09T10:09:54.128Z,15.14
2019-05-09T10:10:54.075Z,15.09
2019-05-09T10:11:57.053Z,15.31
2019-05-09T10:12:55.067Z,15.73
2019-05-09T10:13:54.104Z,15.84
2019-05-09T10:14:54.030Z,16.23
2019-05-09T10:15:54.029Z,16.51
2019-05-09T10:16:54.056Z,16.83
2019-05-09T10:17:54.007Z,16.97
2019-05-09T10:18:53.997Z,17.02
2019-05-09T10:19:53.982Z,17.22
2019-05-09T10:20:53.956Z,17.30
2019-05-09T10:21:54.047Z,17.36
2019-05-09T10:22:59.680Z,17.20
2019-05-09T10:23:57.388Z,17.02
2019-05-09T10:24:53.946Z,17.05
2019-05-09T10:25:53.897Z,17.11
2019-05-09T10:26:53.886Z,17.09
2019-05-09T10:27:53.892Z,16.81
2019-05-09T10:28:53.864Z,16.69
2019-05-09T10:29:53.871Z,16.57
2019-05-09T10:30:53.843Z,16.50
2019-05-09T10:31:53.832Z,16.49
2019-05-09T10:32:53.886Z,16.53
2019-05-09T10:33:53.813Z,16.41
2019-05-09T10:34:53.799Z,16.64
2019-05-09T10:35:53.814Z,16.58
2019-05-09T10:36:53.782Z,16.78
2019-05-09T10:37:53.771Z,16.89
2019-05-09T10:38:53.793Z,17.29
2019-05-09T10:39:53.739Z,17.42
2019-05-09T10:40:53.732Z,17.41
2019-05-09T10:41:53.719Z,17.27
2019-05-09T10:42:53.716Z,17.16
2019-05-09T10:43:53.692Z,16.84
2019-05-09T10:44:53.728Z,16.53
2019-05-09T10:45:53.676Z,16.47
2019-05-09T10:46:58.806Z,16.53
2019-05-09T10:47:54.647Z,16.89
2019-05-09T10:48:53.635Z,17.09
2019-05-09T10:49:53.625Z,17.31
2019-05-09T10:50:54.827Z,17.09
2019-05-09T10:51:53.612Z,17.06
2019-05-09T10:52:53.593Z,17.09
2019-05-09T10:53:53.582Z,17.29
2019-05-09T10:54:53.570Z,17.27
2019-05-09T10:55:53.568Z,17.11
2019-05-09T10:56:53.614Z,17.09
2019-05-09T10:57:53.549Z,17.09
2019-05-09T10:58:53.524Z,16.90
2019-05-09T10:59:53.515Z,16.72
2019-05-09T11:00:53.502Z,16.60
2019-05-09T11:01:53.491Z,16.79
2019-05-09T11:02:53.516Z,16.66
2019-05-09T11:03:53.465Z,16.57
2019-05-09T11:04:53.460Z,16.64
2019-05-09T11:05:53.442Z,16.53
2019-05-09T11:06:53.434Z,16.53
2019-05-09T11:07:53.442Z,16.54
2019-05-09T11:08:53.436Z,16.49
2019-05-09T11:09:53.402Z,16.50
2019-05-09T11:10:53.390Z,16.42
2019-05-09T11:11:53.414Z,16.31
2019-05-09T11:12:53.367Z,16.26
2019-05-09T11:13:53.398Z,16.23
2019-05-09T11:14:53.396Z,16.20
2019-05-09T11:15:53.368Z,16.21
2019-05-09T11:17:06.710Z,16.24
2019-05-09T11:17:54.309Z,16.35
2019-05-09T11:18:53.296Z,16.35
2019-05-09T11:19:53.330Z,16.35
2019-05-09T11:20:53.282Z,16.42
2019-05-09T11:21:53.264Z,16.50
2019-05-09T11:22:53.253Z,16.66
2019-05-09T11:23:53.245Z,16.81
2019-05-09T11:24:53.240Z,16.81
2019-05-09T11:25:53.253Z,16.84
2019-05-09T11:26:53.212Z,16.84
2019-05-09T11:28:06.714Z,16.93
2019-05-09T11:28:54.182Z,17.04
2019-05-09T11:29:53.172Z,17.31
2019-05-09T11:30:53.162Z,17.60
2019-05-09T11:31:53.205Z,17.72
2019-05-09T11:32:53.143Z,17.90
2019-05-09T11:33:53.132Z,18.16
2019-05-09T11:34:53.149Z,18.56
2019-05-09T11:35:53.152Z,18.77
2019-05-09T11:36:53.129Z,18.73
2019-05-09T11:37:53.097Z,18.89
2019-05-09T11:38:53.109Z,18.80
2019-05-09T11:39:53.112Z,18.68
2019-05-09T11:40:53.053Z,18.40
2019-05-09T11:41:53.044Z,18.18
2019-05-09T11:42:53.043Z,17.85
2019-05-09T11:43:53.015Z,17.64
2019-05-09T11:44:53.015Z,17.52
2019-05-09T11:45:52.991Z,17.54
2019-05-09T11:46:53.035Z,17.30
2019-05-09T11:47:52.972Z,17.19
2019-05-09T11:48:52.981Z,17.11
2019-05-09T11:49:52.963Z,17.20
2019-05-09T11:50:52.950Z,17.24
2019-05-09T11:51:52.927Z,17.15
2019-05-09T11:52:52.948Z,17.27
2019-05-09T11:53:52.904Z,17.26
2019-05-09T11:54:52.923Z,17.23
2019-05-09T11:55:52.915Z,17.29
2019-05-09T11:56:52.875Z,17.36
2019-05-09T11:57:52.862Z,17.48
2019-05-09T11:58:52.863Z,17.36
2019-05-09T11:59:52.836Z,17.36
2019-05-09T12:00:52.843Z,17.51
2019-05-09T12:01:52.813Z,17.41
2019-05-09T12:02:52.804Z,17.26
2019-05-09T12:03:52.796Z,17.22
2019-05-09T12:04:52.820Z,17.24
2019-05-09T12:05:52.773Z,17.31
2019-05-09T12:06:52.775Z,17.31
2019-05-09T12:07:52.773Z,17.14
2019-05-09T12:08:52.741Z,17.27
2019-05-09T12:09:52.725Z,17.30
2019-05-09T12:10:52.743Z,17.41
2019-05-09T12:11:52.723Z,17.34
2019-05-09T12:12:52.694Z,17.36
2019-05-09T12:13:52.710Z,17.39
2019-05-09T12:14:52.689Z,17.52
2019-05-09T12:15:52.657Z,17.30
2019-05-09T12:16:52.665Z,17.11
2019-05-09T12:17:58.186Z,17.08
2019-05-09T12:18:53.621Z,17.20
2019-05-09T12:20:08.129Z,17.31
2019-05-09T12:20:53.610Z,17.36
2019-05-09T12:21:52.587Z,17.31
2019-05-09T12:22:52.619Z,17.33
2019-05-09T12:23:52.578Z,17.68
2019-05-09T12:24:54.044Z,18.01
2019-05-09T12:25:52.540Z,18.08
2019-05-09T12:26:52.528Z,18.05
2019-05-09T12:27:52.521Z,17.98
2019-05-09T12:28:52.718Z,17.74
2019-05-09T12:29:52.499Z,17.63
2019-05-09T12:30:52.494Z,17.74
2019-05-09T12:31:52.478Z,17.78
2019-05-09T12:32:52.461Z,17.74
2019-05-09T12:33:52.463Z,17.63
2019-05-09T12:34:52.468Z,17.51
2019-05-09T12:35:52.450Z,17.48
2019-05-09T12:36:52.416Z,17.33
2019-05-09T12:37:52.406Z,17.38
2019-05-09T12:38:52.420Z,17.38
2019-05-09T12:39:52.382Z,17.34
2019-05-09T12:40:52.418Z,17.36
2019-05-09T12:41:52.370Z,17.24
2019-05-09T12:42:52.347Z,17.16
2019-05-09T12:43:52.338Z,17.06
2019-05-09T12:44:52.337Z,17.08
2019-05-09T12:45:52.313Z,16.97
2019-05-09T12:46:52.331Z,16.90
2019-05-09T12:48:06.460Z,16.97
2019-05-09T12:48:53.278Z,16.96
2019-05-09T12:49:52.269Z,16.97
2019-05-09T12:50:52.269Z,16.83
2019-05-09T12:51:52.248Z,16.87
2019-05-09T12:52:52.281Z,16.93
2019-05-09T12:53:52.223Z,16.78
2019-05-09T12:54:52.211Z,16.89
2019-05-09T12:55:52.200Z,16.81
2019-05-09T12:56:52.193Z,16.79
2019-05-09T12:57:52.178Z,16.68
2019-05-09T12:58:52.233Z,16.72
2019-05-09T12:59:53.055Z,16.69
2019-05-09T13:00:52.143Z,16.65
2019-05-09T13:01:52.135Z,16.68
2019-05-09T13:02:52.123Z,16.76